Time;durP1;ratioP1;P1;durP2;ratioP2;P2;SDS_P1;SDS_P2;PMS_P1;PMS_P2;Temp;Humidity;BMP_temperature;BMP_pressure;BME280_temperature;BME280_humidity;BME280_pressure;Samples;Min_cycle;Max_cycle;Signal;HPM_P1;HPM_P2
2021/10/08 06:00:42;;;;;;;22.75;13.27;;;14.10;99.90;;;;;;6053092;22;20034;-84
2021/10/08 06:03:09;;;;;;;19.05;12.95;;;14.10;99.90;;;;;;6059840;23;20538;-88
2021/10/08 06:05:38;;;;;;;20.17;13.63;;;14.10;99.90;;;;;;6038023;23;20015;-88
2021/10/08 06:08:06;;;;;;;;;;;14.10;99.90;;;;;;6062908;23;20111;-87
2021/10/08 06:10:37;;;;;;;21.13;13.27;;;14.10;99.90;;;;;;6038372;23;19917;-88
2021/10/08 06:13:04;;;;;;;19.02;13.52;;;14.10;99.90;;;;;;6061998;23;20084;-85
2021/10/08 06:15:32;;;;;;;21.63;14.20;;;14.10;99.90;;;;;;6036510;23;20018;-87
2021/10/08 06:17:59;;;;;;;24.38;13.85;;;14.10;99.90;;;;;;6063327;23;20023;-87
2021/10/08 06:20:26;;;;;;;20.20;13.55;;;14.10;99.90;;;;;;6060437;23;20547;-83
2021/10/08 06:22:54;;;;;;;19.90;11.73;;;14.10;99.90;;;;;;6060618;23;20080;-83
2021/10/08 06:25:21;;;;;;;19.27;13.40;;;14.20;99.90;;;;;;6059782;23;20061;-83
2021/10/08 06:27:51;;;;;;;20.38;12.63;;;14.20;99.90;;;;;;6060183;23;20027;-83
2021/10/08 06:30:20;;;;;;;21.48;11.57;;;14.20;99.90;;;;;;6059664;23;20408;-83
2021/10/08 06:32:47;;;;;;;21.83;12.02;;;14.20;99.90;;;;;;6060423;23;20401;-84
2021/10/08 06:35:15;;;;;;;17.40;11.88;;;14.30;99.90;;;;;;6060234;23;20073;-84
2021/10/08 06:37:43;;;;;;;19.63;12.57;;;14.30;99.90;;;;;;6061032;23;20023;-83
2021/10/08 06:40:10;;;;;;;16.08;10.65;;;14.30;99.90;;;;;;6059660;23;20051;-84
2021/10/08 06:42:38;;;;;;;17.35;10.82;;;14.30;99.90;;;;;;6060539;23;20019;-84
2021/10/08 06:45:05;;;;;;;19.38;11.63;;;14.30;99.90;;;;;;6035388;23;20077;-84
2021/10/08 06:47:32;;;;;;;16.52;11.68;;;14.30;99.90;;;;;;6059879;23;20019;-84
2021/10/08 06:49:59;;;;;;;18.70;11.32;;;14.30;99.90;;;;;;6035141;23;20023;-84
2021/10/08 06:52:26;;;;;;;16.48;10.75;;;14.40;99.90;;;;;;6035529;23;20023;-84
2021/10/08 06:54:53;;;;;;;16.48;11.02;;;14.40;99.90;;;;;;6060578;23;20031;-84
2021/10/08 06:57:20;;;;;;;14.93;10.57;;;14.40;99.90;;;;;;6058962;23;20019;-84
2021/10/08 06:59:47;;;;;;;14.05;9.35;;;14.40;99.90;;;;;;6035273;23;20023;-84
2021/10/08 07:02:14;;;;;;;17.88;9.93;;;14.40;99.90;;;;;;6048429;23;20080;-84
2021/10/08 07:04:40;;;;;;;15.90;10.05;;;14.50;99.90;;;;;;6058806;23;20547;-84
2021/10/08 07:07:07;;;;;;;13.45;9.00;;;14.50;99.90;;;;;;6034098;23;20027;-83
2021/10/08 07:09:35;;;;;;;13.75;9.35;;;14.50;99.90;;;;;;6059753;23;20544;-84
2021/10/08 07:12:02;;;;;;;16.13;9.35;;;14.50;99.90;;;;;;6034081;23;20023;-83
2021/10/08 07:14:29;;;;;;;12.75;8.50;;;14.60;99.90;;;;;;6059791;23;20027;-84
2021/10/08 07:16:56;;;;;;;13.05;8.73;;;14.60;99.90;;;;;;6034730;23;20404;-84
2021/10/08 07:19:23;;;;;;;13.35;7.85;;;14.60;99.90;;;;;;6033020;23;20027;-85
2021/10/08 07:21:51;;;;;;;11.77;8.15;;;14.70;99.90;;;;;;6034859;23;20365;-84
2021/10/08 07:24:18;;;;;;;12.18;8.07;;;14.70;99.90;;;;;;6058942;23;20023;-84
2021/10/08 07:26:45;;;;;;;11.13;7.30;;;14.70;99.90;;;;;;6034192;23;20081;-84
2021/10/08 07:29:13;;;;;;;11.80;7.85;;;14.80;99.90;;;;;;6059452;23;20480;-84
2021/10/08 07:31:40;;;;;;;10.10;6.90;;;14.80;99.90;;;;;;6059383;23;20085;-84
2021/10/08 07:34:07;;;;;;;12.77;7.20;;;14.80;99.90;;;;;;6034135;23;20097;-84
2021/10/08 07:36:34;;;;;;;10.27;7.38;;;14.80;99.90;;;;;;6034087;23;20019;-84
2021/10/08 07:39:01;;;;;;;13.88;6.93;;;14.90;99.90;;;;;;6059838;23;20046;-85
2021/10/08 07:41:28;;;;;;;13.18;6.78;;;14.90;99.90;;;;;;6058197;23;20081;-84
2021/10/08 07:43:54;;;;;;;12.02;7.13;;;14.90;99.90;;;;;;6059493;23;20069;-84
2021/10/08 07:46:24;;;;;;;12.73;6.93;;;15.00;99.90;;;;;;6058502;23;20093;-84
2021/10/08 07:48:51;;;;;;;9.52;6.78;;;15.00;99.90;;;;;;6058844;23;20396;-84
2021/10/08 07:51:18;;;;;;;13.70;6.82;;;15.10;99.90;;;;;;6058979;23;20027;-85
2021/10/08 07:53:45;;;;;;;10.82;6.38;;;15.10;99.90;;;;;;6058563;23;20546;-85
2021/10/08 07:56:12;;;;;;;9.20;6.15;;;15.20;99.90;;;;;;6058308;23;20093;-86
2021/10/08 07:58:39;;;;;;;14.07;6.88;;;15.20;99.90;;;;;;6059867;23;20353;-84
2021/10/08 08:01:06;;;;;;;9.98;5.82;;;15.30;99.90;;;;;;6058850;23;20023;-85
2021/10/08 08:03:33;;;;;;;9.55;5.32;;;15.40;99.90;;;;;;6060562;23;20356;-86
2021/10/08 08:06:00;;;;;;;9.60;5.57;;;15.50;99.90;;;;;;6061385;23;20392;-85
2021/10/08 08:08:27;;;;;;;10.75;5.57;;;15.50;99.90;;;;;;6059973;23;20030;-85
2021/10/08 08:10:53;;;;;;;6.28;4.80;;;15.60;99.90;;;;;;6061239;23;20030;-86
2021/10/08 08:13:21;;;;;;;8.80;5.40;;;15.60;99.90;;;;;;6060092;23;20088;-86
2021/10/08 08:15:48;;;;;;;10.02;4.85;;;15.70;99.90;;;;;;6036744;23;20038;-87
2021/10/08 08:18:15;;;;;;;8.95;5.22;;;15.70;99.90;;;;;;6060673;23;20023;-85
2021/10/08 08:20:42;;;;;;;12.52;5.30;;;15.80;99.90;;;;;;6060823;23;20081;-86
2021/10/08 08:23:09;;;;;;;7.28;4.50;;;15.80;99.90;;;;;;6060645;23;20081;-86
2021/10/08 08:25:36;;;;;;;10.52;4.57;;;15.90;99.90;;;;;;6061048;23;20027;-86
2021/10/08 08:28:03;;;;;;;9.40;4.30;;;15.90;99.90;;;;;;6036336;23;20023;-86
2021/10/08 08:30:32;;;;;;;9.20;4.13;;;16.00;99.90;;;;;;6060209;23;20023;-85
2021/10/08 08:32:59;;;;;;;10.65;4.57;;;16.10;99.90;;;;;;6061103;23;20027;-87
2021/10/08 08:35:27;;;;;;;11.05;4.20;;;16.20;99.90;;;;;;6060812;23;20448;-87
2021/10/08 08:37:53;;;;;;;13.23;4.43;;;16.30;99.90;;;;;;6036706;23;20030;-87
2021/10/08 08:40:22;;;;;;;8.93;3.85;;;16.40;99.90;;;;;;6061232;23;20015;-87
2021/10/08 08:42:52;;;;;;;9.40;3.50;;;16.60;99.90;;;;;;6061702;23;20023;-86
2021/10/08 08:45:19;;;;;;;7.00;2.95;;;16.70;99.90;;;;;;6060794;23;20023;-87
2021/10/08 08:48:04;;;;;;;8.50;2.78;;;16.80;99.90;;;;;;6037383;23;20022;-88
2021/10/08 08:50:32;;;;;;;11.20;3.13;;;16.90;99.90;;;;;;6061309;23;20019;-87
2021/10/08 08:53:00;;;;;;;;;;;17.00;99.90;;;;;;6037554;23;20019;-86
2021/10/08 08:55:27;;;;;;;6.45;2.45;;;17.00;99.90;;;;;;6060831;23;19918;-87
2021/10/08 08:57:54;;;;;;;6.22;2.10;;;17.10;99.90;;;;;;6037476;23;20217;-86
2021/10/08 09:00:23;;;;;;;5.70;1.60;;;17.20;99.90;;;;;;6060202;23;20038;-86
2021/10/08 09:03:01;;;;;;;4.03;1.80;;;17.30;99.90;;;;;;6062031;23;20077;-87
2021/10/08 09:05:34;;;;;;;7.30;2.05;;;17.40;99.90;;;;;;6061062;23;20059;-87
2021/10/08 09:08:04;;;;;;;8.45;1.75;;;17.50;99.90;;;;;;6062209;23;20070;-88
2021/10/08 09:10:36;;;;;;;5.25;1.60;;;17.60;99.90;;;;;;6061657;23;20092;-87
2021/10/08 09:13:04;;;;;;;5.85;1.50;;;17.70;99.90;;;;;;6061131;23;20023;-84
2021/10/08 09:15:53;;;;;;;7.70;1.92;;;17.70;99.90;;;;;;6061750;23;20042;-87
2021/10/08 09:18:23;;;;;;;5.75;1.50;;;17.80;99.90;;;;;;6061429;23;20026;-87
2021/10/08 09:21:10;;;;;;;5.70;1.55;;;17.90;99.90;;;;;;6061343;23;20022;-87
2021/10/08 09:23:41;;;;;;;4.05;1.35;;;17.90;99.90;;;;;;6061100;23;20023;-86
2021/10/08 09:26:24;;;;;;;6.05;1.40;;;17.90;99.90;;;;;;6036948;23;20480;-87
2021/10/08 09:28:59;;;;;;;5.55;1.58;;;18.00;99.90;;;;;;6061059;23;20081;-86
2021/10/08 09:31:47;;;;;;;6.90;1.75;;;18.00;99.90;;;;;;6059846;23;20023;-86
2021/10/08 09:34:16;;;;;;;5.88;1.50;;;18.10;99.90;;;;;;6060616;23;20497;-87
2021/10/08 09:36:48;;;;;;;4.28;1.30;;;18.10;99.90;;;;;;6060856;23;20058;-86
2021/10/08 09:39:28;;;;;;;6.10;1.48;;;18.10;99.90;;;;;;6060697;23;20018;-86
2021/10/08 09:42:04;;;;;;;4.65;1.33;;;18.20;99.90;;;;;;6061366;23;20097;-86
2021/10/08 09:44:35;;;;;;;5.93;1.30;;;18.20;99.90;;;;;;6036294;23;20018;-86
2021/10/08 09:47:20;;;;;;;3.33;1.02;;;18.20;99.90;;;;;;6060288;23;20027;-85
2021/10/08 09:49:49;;;;;;;4.93;1.45;;;18.20;99.90;;;;;;6060762;23;20097;-86
2021/10/08 09:52:20;;;;;;;5.38;1.50;;;18.20;99.90;;;;;;6060066;23;20441;-86
2021/10/08 09:54:53;;;;;;;7.43;1.67;;;18.20;99.90;;;;;;6059995;23;20369;-84
2021/10/08 09:57:21;;;;;;;6.45;1.50;;;18.30;99.90;;;;;;6034626;23;20026;-85
2021/10/08 09:59:50;;;;;;;4.30;1.13;;;18.30;99.90;;;;;;6060161;23;20023;-85
2021/10/08 10:02:18;;;;;;;6.72;1.30;;;18.30;99.90;;;;;;6059627;23;20058;-86
2021/10/08 10:04:54;;;;;;;3.83;1.13;;;18.40;99.90;;;;;;6035233;23;20081;-86
2021/10/08 10:07:27;;;;;;;4.75;1.35;;;18.40;99.90;;;;;;6057403;23;20015;-86
2021/10/08 10:09:54;;;;;;;7.18;1.33;;;18.40;99.90;;;;;;6034422;23;20085;-84
2021/10/08 10:12:34;;;;;;;4.57;1.20;;;18.50;99.90;;;;;;6059940;23;20089;-85
2021/10/08 10:15:01;;;;;;;5.10;1.15;;;18.50;99.90;;;;;;6059999;23;20027;-85
2021/10/08 10:17:29;;;;;;;5.70;1.25;;;18.60;99.90;;;;;;6034619;23;20023;-85
2021/10/08 10:19:57;;;;;;;7.03;1.47;;;18.60;99.90;;;;;;6061092;23;20031;-87
2021/10/08 10:22:24;;;;;;;3.28;1.10;;;18.60;99.90;;;;;;6059303;23;20103;-86
2021/10/08 10:24:52;;;;;;;5.18;1.38;;;18.70;99.90;;;;;;6060866;23;20089;-88
2021/10/08 10:27:19;;;;;;;7.22;1.58;;;18.70;99.90;;;;;;6060369;23;20026;-84
2021/10/08 10:29:47;;;;;;;7.30;1.63;;;18.80;99.90;;;;;;6035764;23;20528;-86
2021/10/08 10:32:15;;;;;;;5.57;1.58;;;18.80;99.90;;;;;;6059797;23;20507;-85
2021/10/08 10:34:42;;;;;;;6.90;1.30;;;18.90;99.90;;;;;;6059881;23;20069;-85
2021/10/08 10:37:09;;;;;;;5.95;1.08;;;18.90;99.90;;;;;;6034086;23;20485;-86
2021/10/08 10:39:40;;;;;;;4.47;1.40;;;18.90;99.90;;;;;;6060276;23;20073;-86
2021/10/08 10:42:13;;;;;;;5.30;1.30;;;18.90;99.90;;;;;;6060055;23;20408;-85
2021/10/08 10:45:18;;;;;;;4.38;1.20;;;18.90;99.90;;;;;;6061832;23;20023;-87
2021/10/08 10:47:47;;;;;;;3.60;1.15;;;19.00;99.90;;;;;;6059751;23;20034;-89
2021/10/08 10:50:27;;;;;;;7.88;1.15;;;19.00;99.90;;;;;;6061234;23;20030;-86
2021/10/08 10:53:00;;;;;;;4.85;1.02;;;19.00;99.90;;;;;;6063173;23;20022;-89
2021/10/08 10:55:56;;;;;;;7.10;1.48;;;19.00;99.90;;;;;;6064624;23;20043;-89
2021/10/08 10:58:23;;;;;;;4.10;1.20;;;19.00;99.90;;;;;;6058442;23;20531;-87
2021/10/08 11:00:59;;;;;;;4.72;1.30;;;19.00;99.90;;;;;;6064796;23;20027;-91
2021/10/08 11:03:46;;;;;;;5.20;1.40;;;19.00;99.90;;;;;;6058537;23;20085;-89
2021/10/08 11:06:15;;;;;;;5.72;1.15;;;19.00;99.90;;;;;;6057787;23;20018;-90
2021/10/08 11:09:15;;;;;;;5.75;1.17;;;19.00;99.90;;;;;;6034289;23;20019;-86
2021/10/08 11:11:43;;;;;;;4.75;1.17;;;19.10;99.90;;;;;;6059013;23;20023;-91
2021/10/08 11:14:17;;;;;;;3.20;1.20;;;19.10;99.90;;;;;;6034307;23;20070;-91
2021/10/08 11:16:44;;;;;;;3.90;1.10;;;19.10;99.90;;;;;;6059124;23;20094;-91
2021/10/08 11:19:38;;;;;;;6.15;1.10;;;19.10;99.90;;;;;;6033281;23;20045;-90
2021/10/08 11:22:06;;;;;;;5.65;1.50;;;19.10;99.90;;;;;;6058104;23;20480;-91
2021/10/08 11:24:33;;;;;;;8.43;1.40;;;19.10;99.90;;;;;;6035345;23;20022;-89
2021/10/08 11:27:03;;;;;;;4.88;1.30;;;19.10;99.90;;;;;;6061582;23;20022;-89
2021/10/08 11:29:32;;;;;;;5.80;1.10;;;19.10;99.90;;;;;;6028785;23;20397;-89
2021/10/08 11:32:08;;;;;;;3.50;1.38;;;19.10;99.90;;;;;;6059830;23;20343;-86
2021/10/08 11:34:48;;;;;;;6.35;1.42;;;19.10;99.90;;;;;;6060312;23;20015;-86
2021/10/08 11:37:15;;;;;;;5.32;1.20;;;19.10;99.90;;;;;;6059568;23;20097;-89
2021/10/08 11:39:44;;;;;;;4.18;1.17;;;19.10;99.90;;;;;;6059878;23;20523;-87
2021/10/08 11:42:14;;;;;;;6.25;1.13;;;19.10;99.90;;;;;;6057191;23;20092;-87
2021/10/08 11:45:00;;;;;;;4.72;1.17;;;19.10;99.90;;;;;;6060848;23;20019;-85
2021/10/08 11:47:30;;;;;;;4.55;1.30;;;19.10;99.90;;;;;;6060112;23;20535;-86
2021/10/08 11:52:36;;;;;;;3.92;1.00;;;19.20;99.90;;;;;;6061840;23;20022;-87
2021/10/08 11:55:03;;;;;;;5.30;1.00;;;19.20;99.90;;;;;;6035400;23;20023;-88
2021/10/08 11:57:50;;;;;;;3.72;1.40;;;19.20;99.90;;;;;;6060263;23;20392;-86
2021/10/08 12:00:19;;;;;;;3.25;1.25;;;19.20;99.90;;;;;;6060192;23;20023;-86
2021/10/08 12:03:08;;;;;;;4.00;0.88;;;19.20;99.90;;;;;;6060744;23;20054;-85
2021/10/08 12:05:58;;;;;;;5.13;1.23;;;19.30;99.90;;;;;;6060698;23;20015;-87
2021/10/08 12:08:32;;;;;;;4.90;1.42;;;19.30;99.90;;;;;;6035620;23;20085;-87
2021/10/08 12:11:10;;;;;;;6.13;1.30;;;19.30;99.90;;;;;;6036542;23;20445;-87
2021/10/08 12:13:48;;;;;;;5.55;1.30;;;19.30;99.90;;;;;;6036158;23;20027;-87
2021/10/08 12:16:19;;;;;;;6.70;1.48;;;19.30;99.90;;;;;;6060042;23;20517;-88
2021/10/08 12:18:57;;;;;;;3.35;1.02;;;19.30;99.90;;;;;;6061352;23;20086;-85
2021/10/08 12:21:37;;;;;;;4.00;1.25;;;19.30;99.90;;;;;;6034703;23;20027;-87
2021/10/08 12:24:16;;;;;;;6.10;1.25;;;19.30;99.90;;;;;;6059617;23;20026;-86
2021/10/08 12:27:06;;;;;;;8.07;1.25;;;19.30;99.90;;;;;;6034089;23;20035;-85
2021/10/08 12:29:48;;;;;;;6.30;1.15;;;19.30;99.90;;;;;;6058428;23;20023;-86
2021/10/08 12:32:16;;;;;;;4.63;1.10;;;19.30;99.90;;;;;;6060169;23;20027;-86
2021/10/08 12:34:52;;;;;;;6.15;1.38;;;19.30;99.90;;;;;;6060986;23;20061;-87
2021/10/08 12:37:22;;;;;;;4.90;1.40;;;19.30;99.90;;;;;;6060220;23;20027;-88
2021/10/08 12:40:12;;;;;;;6.40;1.30;;;19.30;99.90;;;;;;6035577;23;20027;-87
2021/10/08 12:43:00;;;;;;;4.97;1.63;;;19.40;99.90;;;;;;6060952;23;20035;-87
2021/10/08 12:45:33;;;;;;;6.20;1.38;;;19.40;99.90;;;;;;6059933;23;20023;-85
2021/10/08 12:48:04;;;;;;;5.53;1.55;;;19.40;99.90;;;;;;6035272;23;20150;-84
2021/10/08 12:50:36;;;;;;;4.25;1.38;;;19.40;99.90;;;;;;6061145;23;20025;-87
2021/10/08 12:53:15;;;;;;;7.07;1.30;;;19.40;99.90;;;;;;6037136;23;20027;-86
2021/10/08 12:55:45;;;;;;;6.60;1.33;;;19.30;99.90;;;;;;6036906;23;20030;-86
2021/10/08 12:58:17;;;;;;;5.05;1.35;;;19.30;99.90;;;;;;6061299;23;20027;-86
2021/10/08 13:01:00;;;;;;;4.85;1.42;;;19.40;99.90;;;;;;6036854;23;20030;-88
2021/10/08 13:03:44;;;;;;;4.25;1.35;;;19.40;99.90;;;;;;6039595;23;20093;-88
2021/10/08 13:06:26;;;;;;;6.15;1.50;;;19.40;99.90;;;;;;6062201;23;20023;-87
2021/10/08 13:09:06;;;;;;;5.57;1.48;;;19.40;99.90;;;;;;6062628;23;20023;-89
2021/10/08 13:11:36;;;;;;;4.82;1.30;;;19.40;99.90;;;;;;6037497;23;20023;-87
2021/10/08 13:14:03;;;;;;;3.83;1.23;;;19.40;99.90;;;;;;6062236;23;20073;-87
2021/10/08 13:16:32;;;;;;;6.30;1.48;;;19.40;99.90;;;;;;6037118;23;20019;-88
2021/10/08 13:19:00;;;;;;;8.13;1.52;;;19.50;99.90;;;;;;6037526;23;20041;-87
2021/10/08 13:21:27;;;;;;;6.13;1.50;;;19.50;99.90;;;;;;6061014;23;20023;-87
2021/10/08 13:23:56;;;;;;;5.97;1.65;;;19.50;99.90;;;;;;6037128;23;20019;-87
2021/10/08 13:26:23;;;;;;;;;;;19.60;99.90;;;;;;6036728;23;20027;-86
2021/10/08 13:28:50;;;;;;;5.30;1.35;;;19.50;99.90;;;;;;6037533;23;19967;-87
2021/10/08 13:31:20;;;;;;;5.57;1.55;;;19.50;99.90;;;;;;6036865;23;20520;-88
2021/10/08 13:33:47;;;;;;;3.63;1.20;;;19.50;99.90;;;;;;6036211;23;20019;-86
2021/10/08 13:36:14;;;;;;;5.07;1.42;;;19.50;99.90;;;;;;6061184;23;20023;-88
2021/10/08 13:38:41;;;;;;;5.47;1.42;;;19.50;99.90;;;;;;6062184;23;20031;-87
2021/10/08 13:41:08;;;;;;;8.38;1.98;;;19.50;99.90;;;;;;6061625;23;20022;-88
2021/10/08 13:43:35;;;;;;;8.30;1.40;;;19.50;99.90;;;;;;6061798;23;20041;-87
2021/10/08 13:46:02;;;;;;;8.10;1.63;;;19.50;99.90;;;;;;6061991;23;20417;-88
2021/10/08 13:48:29;;;;;;;6.07;1.50;;;19.60;99.90;;;;;;6036979;23;20505;-86
2021/10/08 13:51:15;;;;;;;5.13;1.30;;;19.60;99.90;;;;;;6039730;23;20466;-86
2021/10/08 13:53:44;;;;;;;5.93;1.60;;;19.60;99.90;;;;;;6036370;23;20027;-86
2021/10/08 13:56:15;;;;;;;6.25;1.58;;;19.70;99.90;;;;;;6035699;23;20077;-87
2021/10/08 13:58:42;;;;;;;6.25;1.60;;;19.60;99.90;;;;;;6036868;23;20022;-87
2021/10/08 14:01:10;;;;;;;6.97;1.50;;;19.60;99.90;;;;;;6035319;23;20073;-87
2021/10/08 14:11:31;;;;;;;6.05;1.75;;;19.50;99.90;;;;;;6058330;23;20022;-84
2021/10/08 14:13:58;;;;;;;4.63;1.50;;;19.40;99.90;;;;;;6059299;23;20089;-85
2021/10/08 14:16:25;;;;;;;6.00;1.73;;;19.40;99.90;;;;;;6034023;23;20069;-87
2021/10/08 14:18:52;;;;;;;5.88;1.27;;;19.40;99.90;;;;;;6035059;23;20525;-88
2021/10/08 14:21:18;;;;;;;7.60;1.95;;;19.50;99.90;;;;;;6034064;23;20089;-87
2021/10/08 14:23:45;;;;;;;7.20;1.70;;;19.50;99.90;;;;;;6034631;23;20366;-88
2021/10/08 14:26:12;;;;;;;6.95;2.05;;;19.60;99.90;;;;;;6059208;23;20034;-86
2021/10/08 14:28:39;;;;;;;6.15;1.42;;;19.60;99.90;;;;;;6060013;23;20026;-87
2021/10/08 14:31:06;;;;;;;7.55;1.42;;;19.70;99.90;;;;;;6034204;23;20027;-86
2021/10/08 14:33:33;;;;;;;3.75;1.30;;;19.70;99.90;;;;;;6034767;23;20015;-87
2021/10/08 14:36:00;;;;;;;5.10;2.08;;;19.70;99.90;;;;;;6059505;23;20077;-84
2021/10/08 14:38:27;;;;;;;4.53;1.52;;;19.70;99.90;;;;;;6033585;23;20069;-86
2021/10/08 14:40:54;;;;;;;5.68;1.58;;;19.70;99.90;;;;;;6058911;23;20022;-85
2021/10/08 14:43:21;;;;;;;8.40;1.90;;;19.70;99.90;;;;;;6034641;23;20023;-86
2021/10/08 14:45:48;;;;;;;4.70;1.63;;;19.70;99.90;;;;;;6060845;23;20323;-85
2021/10/08 14:48:32;;;;;;;7.28;1.33;;;19.70;99.90;;;;;;6060773;23;20015;-85
2021/10/08 14:50:58;;;;;;;5.60;1.50;;;19.70;99.90;;;;;;6036499;23;20027;-87
2021/10/08 14:53:25;;;;;;;4.65;1.88;;;19.70;99.90;;;;;;6034089;23;20026;-86
2021/10/08 14:58:38;;;;;;;8.60;1.58;;;19.80;99.90;;;;;;6060811;23;20404;-85
2021/10/08 15:01:05;;;;;;;5.75;1.55;;;19.80;99.90;;;;;;6060440;23;20033;-85
2021/10/08 15:03:32;;;;;;;4.07;1.40;;;19.80;99.90;;;;;;6060481;23;20061;-87
2021/10/08 15:05:59;;;;;;;6.78;1.77;;;19.80;99.90;;;;;;6036921;23;20019;-87
2021/10/08 15:08:26;;;;;;;5.57;1.95;;;19.80;99.90;;;;;;6036182;23;20026;-88
2021/10/08 15:10:53;;;;;;;2.88;1.35;;;19.80;99.90;;;;;;6035876;23;20400;-87
2021/10/08 15:13:20;;;;;;;4.18;1.60;;;19.80;99.90;;;;;;6060718;23;20027;-87
2021/10/08 15:15:48;;;;;;;5.07;1.50;;;19.80;99.90;;;;;;6061298;23;20105;-86
2021/10/08 15:18:15;;;;;;;3.35;1.33;;;19.80;99.90;;;;;;6061267;23;20027;-87
2021/10/08 15:20:42;;;;;;;6.90;1.83;;;19.80;99.90;;;;;;6036707;23;20027;-87
2021/10/08 15:23:08;;;;;;;6.95;1.50;;;19.80;99.90;;;;;;6060794;23;20018;-88
2021/10/08 15:25:35;;;;;;;6.47;1.58;;;19.80;99.90;;;;;;6061974;23;20019;-88
2021/10/08 15:28:02;;;;;;;6.45;1.77;;;19.80;99.90;;;;;;6037147;23;20081;-88
2021/10/08 15:30:29;;;;;;;9.18;1.75;;;19.80;99.90;;;;;;6036322;23;20073;-87
2021/10/08 15:32:59;;;;;;;6.80;1.75;;;19.80;99.90;;;;;;6062069;23;20053;-86
2021/10/08 15:35:30;;;;;;;5.85;1.80;;;19.80;99.90;;;;;;6060989;23;20073;-87
2021/10/08 15:37:58;;;;;;;4.30;1.60;;;19.80;99.90;;;;;;6060872;23;20022;-86
2021/10/08 15:40:26;;;;;;;;;;;19.80;99.90;;;;;;6060834;23;20027;-86
2021/10/08 15:42:53;;;;;;;6.35;1.48;;;19.80;99.90;;;;;;6060837;23;19918;-86
2021/10/08 15:45:20;;;;;;;8.23;1.80;;;19.80;99.90;;;;;;6060874;23;20030;-86
2021/10/08 15:47:47;;;;;;;6.50;1.80;;;19.80;99.90;;;;;;6061180;23;20082;-87
2021/10/08 15:50:14;;;;;;;7.30;1.70;;;19.80;99.90;;;;;;6061676;23;20547;-87
2021/10/08 15:52:41;;;;;;;5.47;1.55;;;19.80;99.90;;;;;;6061740;23;20027;-87
2021/10/08 15:55:08;;;;;;;4.63;1.50;;;19.80;99.90;;;;;;6061190;23;20038;-88
2021/10/08 15:57:36;;;;;;;4.75;1.50;;;19.80;99.90;;;;;;6061457;23;20077;-88
2021/10/08 16:00:04;;;;;;;8.95;1.52;;;19.70;99.90;;;;;;6059713;23;20089;-85
2021/10/08 16:02:31;;;;;;;6.63;1.02;;;19.70;99.90;;;;;;6056739;23;20053;-86
2021/10/08 16:04:58;;;;;;;5.20;0.95;;;19.70;99.90;;;;;;6059834;23;20027;-86
2021/10/08 16:07:25;;;;;;;3.67;1.00;;;19.70;99.90;;;;;;6058001;23;20465;-85
2021/10/08 16:09:52;;;;;;;4.07;1.35;;;19.70;99.90;;;;;;6058643;23;20031;-87
2021/10/08 16:12:18;;;;;;;6.70;1.80;;;19.60;99.90;;;;;;6058003;23;20030;-88
2021/10/08 16:14:45;;;;;;;4.55;1.55;;;19.60;99.90;;;;;;6033976;23;20031;-87
2021/10/08 16:17:16;;;;;;;4.78;1.40;;;19.60;99.90;;;;;;6032633;23;20081;-85
2021/10/08 16:19:44;;;;;;;4.38;1.50;;;19.60;99.90;;;;;;6058923;23;20027;-87
2021/10/08 16:22:13;;;;;;;5.18;1.40;;;19.60;99.90;;;;;;6057989;23;20027;-86
2021/10/08 16:24:41;;;;;;;4.40;1.40;;;19.50;99.90;;;;;;6059466;23;20389;-87
2021/10/08 16:27:09;;;;;;;3.05;1.00;;;19.50;99.90;;;;;;6033914;23;20031;-88
2021/10/08 16:29:37;;;;;;;5.57;1.60;;;19.50;99.90;;;;;;6059949;23;20026;-87
2021/10/08 16:32:05;;;;;;;5.57;1.37;;;19.50;99.90;;;;;;6058266;23;20027;-84
2021/10/08 16:34:34;;;;;;;5.10;1.10;;;19.50;99.90;;;;;;6060335;23;20657;-86
2021/10/08 16:37:02;;;;;;;3.72;1.08;;;19.50;99.90;;;;;;6059998;23;20046;-86
2021/10/08 16:39:30;;;;;;;1.80;0.90;;;19.40;99.90;;;;;;6060136;23;20402;-85
2021/10/08 16:42:00;;;;;;;4.25;0.98;;;19.40;99.90;;;;;;6036401;23;20069;-87
2021/10/08 16:44:28;;;;;;;2.83;1.00;;;19.30;99.90;;;;;;6046226;23;20084;-86
2021/10/08 16:47:09;;;;;;;2.88;0.80;;;19.30;99.90;;;;;;6054469;23;20418;-84
2021/10/08 16:49:36;;;;;;;4.80;1.02;;;19.20;99.90;;;;;;6028585;23;20027;-85
2021/10/08 16:52:03;;;;;;;2.10;0.93;;;19.20;99.90;;;;;;6027699;23;20026;-85
2021/10/08 16:54:32;;;;;;;4.40;1.00;;;19.10;99.90;;;;;;6053551;23;20015;-84
2021/10/08 16:56:59;;;;;;;4.72;0.95;;;19.00;99.90;;;;;;6053991;23;20767;-84
2021/10/08 16:59:27;;;;;;;5.95;1.30;;;19.00;99.90;;;;;;6027315;23;20026;-83
2021/10/08 17:01:54;;;;;;;5.35;1.60;;;18.80;99.90;;;;;;6028378;23;20019;-81
2021/10/08 17:04:22;;;;;;;5.70;1.40;;;18.60;99.90;;;;;;6052854;23;20023;-83
2021/10/08 17:06:50;;;;;;;8.15;1.73;;;18.40;99.90;;;;;;6053758;23;20030;-84
2021/10/08 17:09:17;;;;;;;5.57;1.85;;;18.20;99.90;;;;;;6056784;23;20067;-85
2021/10/08 17:11:44;;;;;;;7.03;1.80;;;18.00;99.90;;;;;;6057307;23;20543;-82
2021/10/08 17:14:11;;;;;;;5.30;1.92;;;17.80;99.90;;;;;;6055991;23;20050;-84
2021/10/08 17:16:39;;;;;;;7.03;1.70;;;17.60;99.90;;;;;;6058179;23;20481;-85
2021/10/08 17:19:06;;;;;;;8.40;1.53;;;17.50;99.90;;;;;;6057204;23;20034;-84
2021/10/08 17:21:33;;;;;;;5.15;1.50;;;17.40;99.90;;;;;;6057775;23;20081;-84
2021/10/08 17:24:11;;;;;;;9.20;1.67;;;17.20;99.90;;;;;;6057270;23;20555;-83
2021/10/08 17:26:56;;;;;;;7.15;1.70;;;17.10;99.90;;;;;;6058002;23;20045;-85
2021/10/08 17:34:54;;;;;;;7.65;2.00;;;16.70;99.90;;;;;;6057059;23;20026;-85
2021/10/08 17:37:20;;;;;;;12.52;1.83;;;16.70;99.90;;;;;;6032132;23;20554;-85
2021/10/08 17:39:47;;;;;;;6.55;1.70;;;16.60;99.90;;;;;;6058063;23;20027;-85
2021/10/08 17:42:15;;;;;;;12.48;2.28;;;16.60;99.90;;;;;;6032049;23;20031;-84
2021/10/08 17:44:42;;;;;;;9.20;2.10;;;16.50;99.90;;;;;;6058408;23;20019;-86
2021/10/08 17:47:09;;;;;;;8.05;1.85;;;16.40;99.90;;;;;;6057656;23;20027;-87
2021/10/08 17:49:36;;;;;;;10.40;2.08;;;16.30;99.90;;;;;;6057797;23;20023;-86
2021/10/08 17:52:03;;;;;;;8.18;2.10;;;16.20;99.90;;;;;;6058167;23;20022;-84
2021/10/08 17:54:30;;;;;;;8.98;2.08;;;16.10;99.90;;;;;;6059009;23;20023;-85
2021/10/08 17:56:57;;;;;;;8.45;2.17;;;16.00;99.90;;;;;;6058015;23;20421;-84
2021/10/08 17:59:24;;;;;;;6.47;2.03;;;15.90;99.90;;;;;;6032367;23;20034;-84
2021/10/08 18:01:51;;;;;;;7.32;2.30;;;15.90;99.90;;;;;;6058360;23;20031;-83
2021/10/08 18:04:18;;;;;;;6.63;2.22;;;15.80;99.90;;;;;;6057198;23;20027;-84
2021/10/08 18:06:46;;;;;;;11.77;2.63;;;15.70;99.90;;;;;;6058642;23;20085;-82
2021/10/08 18:09:13;;;;;;;8.90;2.03;;;15.60;99.90;;;;;;6058994;23;20030;-82
2021/10/08 18:11:40;;;;;;;14.55;2.95;;;15.50;99.90;;;;;;6059777;23;20034;-82
2021/10/08 18:14:07;;;;;;;12.18;2.47;;;15.50;99.90;;;;;;6059139;23;20093;-83
2021/10/08 18:16:38;;;;;;;10.82;2.67;;;15.40;99.90;;;;;;6060382;23;20023;-83
2021/10/08 18:19:05;;;;;;;10.50;2.78;;;15.30;99.90;;;;;;6059681;23;20023;-81
2021/10/08 18:21:33;;;;;;;12.80;3.20;;;15.30;99.90;;;;;;6059598;23;20349;-83
2021/10/08 18:24:02;;;;;;;8.27;2.35;;;15.20;99.90;;;;;;6059791;23;20030;-83
2021/10/08 18:26:34;;;;;;;11.05;2.65;;;15.20;99.90;;;;;;6058187;23;20409;-82
2021/10/08 18:29:53;;;;;;;10.63;2.85;;;15.10;99.90;;;;;;6034125;23;20023;-84
2021/10/08 18:31:52;;;;;;;12.05;2.85;;;15.00;99.90;;;;;;6063125;23;20073;-84
2021/10/08 18:34:20;;;;;;;9.82;2.63;;;15.00;99.90;;;;;;6058161;23;20034;-82
2021/10/08 18:36:48;;;;;;;12.40;3.17;;;14.90;99.90;;;;;;6058832;23;20053;-82
2021/10/08 18:39:15;;;;;;;16.60;3.50;;;14.90;99.90;;;;;;6033002;23;20023;-83
2021/10/08 18:41:43;;;;;;;8.65;3.00;;;14.90;99.90;;;;;;6058536;23;20027;-81
2021/10/08 18:44:10;;;;;;;17.30;3.78;;;14.90;99.90;;;;;;6057845;23;20022;-83
2021/10/08 18:46:37;;;;;;;11.27;3.35;;;14.80;99.90;;;;;;6058891;23;20030;-81
2021/10/08 18:49:05;;;;;;;7.70;2.80;;;14.70;99.90;;;;;;6059163;23;20027;-83
2021/10/08 18:51:35;;;;;;;12.15;3.22;;;14.70;99.90;;;;;;6033607;23;20481;-83
2021/10/08 18:54:03;;;;;;;14.55;3.60;;;14.70;99.90;;;;;;6059148;23;20093;-83
2021/10/08 18:56:30;;;;;;;15.35;3.33;;;14.60;99.90;;;;;;6033639;23;20075;-81
2021/10/08 18:58:57;;;;;;;10.52;3.63;;;14.60;99.90;;;;;;6057855;23;20077;-81
2021/10/08 19:01:24;;;;;;;14.82;3.63;;;14.60;99.90;;;;;;6057405;23;20035;-82
2021/10/08 19:03:51;;;;;;;16.45;3.78;;;14.60;99.90;;;;;;6058444;23;20530;-82
2021/10/08 19:06:19;;;;;;;12.85;3.42;;;14.50;99.90;;;;;;6056728;23;20031;-83
2021/10/08 19:08:48;;;;;;;14.80;3.10;;;14.50;99.90;;;;;;6057444;23;20031;-83
2021/10/08 19:11:21;;;;;;;12.35;3.15;;;14.40;99.90;;;;;;6057674;23;20539;-83
2021/10/08 19:21:26;;;;;;;12.45;3.30;;;14.40;99.90;;;;;;6055935;23;20103;-83
2021/10/08 19:23:53;;;;;;;11.23;3.35;;;14.40;99.90;;;;;;6053063;23;20051;-82
2021/10/08 19:26:20;;;;;;;13.25;3.10;;;14.30;99.90;;;;;;6027207;23;20552;-84